Time;durP1;ratioP1;P1;durP2;ratioP2;P2;SDS_P1;SDS_P2;PMS_P1;PMS_P2;Temp;Humidity;BMP_temperature;BMP_pressure;BME280_temperature;BME280_humidity;BME280_pressure;Samples;Min_cycle;Max_cycle;Signal;HPM_P1;HPM_P2
2021/04/16 00:00:35;;;;;;;;;;;;;;;10.94;65.44;99621.16;1798638;79;20547;-60
2021/04/16 00:03:04;;;;;;;;;;;;;;;10.94;65.45;99626.01;1801946;79;21155;-60
2021/04/16 00:05:35;;;;;;;;;;;;;;;10.93;65.40;99624.91;1806181;79;20137;-60
2021/04/16 00:08:07;;;;;;;;;;;;;;;10.89;65.45;99623.21;1760306;79;20264;-61
2021/04/16 00:10:38;;;;;;;;;;;;;;;10.85;65.55;99622.89;1779414;79;20212;-59
2021/04/16 00:13:07;;;;;;;;;;;;;;;10.81;65.63;99627.63;1762775;79;20530;-59
2021/04/16 00:15:36;;;;;;;;;;;;;;;10.78;65.81;99626.77;1798861;79;21328;-59
2021/04/16 00:18:06;;;;;;;;;;;;;;;10.76;65.90;99628.84;1798643;79;20206;-59
2021/04/16 00:20:33;;;;;;;;;;;;;;;10.76;65.97;99631.53;1754797;79;20186;-60
2021/04/16 00:23:02;;;;;;;;;;;;;;;10.72;66.02;99629.03;1704424;83;20253;-59
2021/04/16 00:25:30;;;;;;;;;;;;;;;10.69;66.12;99628.46;1703281;83;20324;-59
2021/04/16 00:27:58;;;;;;;;;;;;;;;10.66;66.21;99629.48;1704292;83;21228;-59
2021/04/16 00:30:29;;;;;;;;;;;;;;;10.63;66.34;99627.23;1705089;83;20763;-60
2021/04/16 00:33:04;;;;;;;;;;;;;;;10.63;66.51;99629.41;1826319;77;20707;-59
2021/04/16 00:35:32;;;;;;;;;;;;;;;10.61;66.69;99622.65;1798581;79;20163;-59
2021/04/16 00:38:00;;;;;;;;;;;;;;;10.60;66.76;99623.19;1801991;79;21209;-59
2021/04/16 00:40:34;;;;;;;;;;;;;;;10.61;66.82;99622.11;1803022;79;20160;-58
2021/04/16 00:43:02;;;;;;;;;;;;;;;10.61;66.83;99613.27;1802606;79;20494;-59
2021/04/16 00:45:32;;;;;;;;;;;;;;;10.61;66.89;99619.97;1801045;79;20115;-59
2021/04/16 00:48:01;;;;;;;;;;;;;;;10.58;66.94;99623.12;1799864;79;20554;-58
2021/04/16 00:50:34;;;;;;;;;;;;;;;10.55;67.01;99618.24;1794065;79;21213;-58
2021/04/16 00:53:03;;;;;;;;;;;;;;;10.53;67.16;99621.16;1801106;79;20135;-59
2021/04/16 00:55:31;;;;;;;;;;;;;;;10.50;67.32;99625.12;1801927;79;20115;-59
2021/04/16 00:58:00;;;;;;;;;;;;;;;10.46;67.47;99628.51;1801791;79;20252;-59
2021/04/16 01:00:29;;;;;;;;;;;;;;;10.43;67.60;99620.94;1801864;79;20226;-59
2021/04/16 01:02:57;;;;;;;;;;;;;;;10.40;67.71;99622.22;1798281;79;21272;-60
2021/04/16 01:05:26;;;;;;;;;;;;;;;10.36;67.83;99625.07;1793317;79;20240;-61
2021/04/16 01:07:55;;;;;;;;;;;;;;;10.33;67.96;99626.38;1784343;79;20478;-59
2021/04/16 01:10:23;;;;;;;;;;;;;;;10.33;68.04;99621.02;1801467;79;20330;-59
2021/04/16 01:12:52;;;;;;;;;;;;;;;10.33;68.15;99621.49;1794026;79;20298;-59
2021/04/16 01:15:30;;;;;;;;;;;;;;;10.36;68.17;99621.05;1716995;83;21224;-59
2021/04/16 01:18:11;;;;;;;;;;;;;;;10.41;68.07;99619.00;1713232;83;20388;-60
2021/04/16 01:20:47;;;;;;;;;;;;;;;10.46;67.96;99626.63;1818800;77;20349;-58
2021/04/16 01:23:40;;;;;;;;;;;;;;;10.41;67.88;99617.16;1800693;79;20135;-60
2021/04/16 01:26:08;;;;;;;;;;;;;;;10.41;67.84;99622.52;1800412;78;21366;-60
2021/04/16 01:28:38;;;;;;;;;;;;;;;10.41;67.79;99616.33;1801537;79;20132;-61
2021/04/16 01:31:10;;;;;;;;;;;;;;;10.40;67.86;99621.41;1801871;79;20129;-60
2021/04/16 01:33:40;;;;;;;;;;;;;;;10.38;67.91;99622.16;1800558;79;20164;-59
2021/04/16 01:36:12;;;;;;;;;;;;;;;10.38;67.96;99620.31;1800850;79;20143;-59
2021/04/16 01:38:41;;;;;;;;;;;;;;;10.38;67.96;99618.14;1798191;79;21210;-58
2021/04/16 01:41:09;;;;;;;;;;;;;;;10.37;67.93;99613.31;1799215;79;20202;-59
2021/04/16 01:43:40;;;;;;;;;;;;;;;10.35;67.94;99614.09;1799953;79;20151;-61
2021/04/16 01:46:12;;;;;;;;;;;;;;;10.34;67.99;99613.78;1800091;79;20565;-59
2021/04/16 01:48:49;;;;;;;;;;;;;;;10.33;68.07;99608.09;1697386;83;20347;-59
2021/04/16 01:51:23;;;;;;;;;;;;;;;10.34;68.12;99616.47;1697761;83;21211;-60
2021/04/16 01:54:12;;;;;;;;;;;;;;;10.42;68.12;99616.09;1818479;77;20180;-60
2021/04/16 01:56:42;;;;;;;;;;;;;;;10.39;68.07;99615.22;1810199;79;20134;-59
2021/04/16 01:59:14;;;;;;;;;;;;;;;10.41;68.01;99609.63;1812042;79;21191;-59
2021/04/16 02:01:45;;;;;;;;;;;;;;;10.44;68.02;99618.56;1812288;79;20153;-59
2021/04/16 02:04:14;;;;;;;;;;;;;;;10.47;67.95;99615.41;1813423;79;20141;-60
2021/04/16 02:06:44;;;;;;;;;;;;;;;10.50;67.85;99614.94;1808280;79;20155;-60
2021/04/16 02:09:15;;;;;;;;;;;;;;;10.51;67.74;99610.67;1818227;77;20155;-59
2021/04/16 02:11:44;;;;;;;;;;;;;;;10.50;67.67;99614.94;1831540;77;21185;-59
2021/04/16 02:14:14;;;;;;;;;;;;;;;10.49;67.64;99608.73;1805228;77;20210;-61
2021/04/16 02:16:44;;;;;;;;;;;;;;;10.49;67.62;99617.31;1793244;78;20210;-60
2021/04/16 02:19:13;;;;;;;;;;;;;;;10.49;67.60;99613.30;1801299;79;20152;-60
2021/04/16 02:21:41;;;;;;;;;;;;;;;10.47;67.62;99613.53;1798283;79;20187;-60
2021/04/16 02:24:09;;;;;;;;;;;;;;;10.48;67.68;99610.31;1801065;79;21833;-60
2021/04/16 02:26:38;;;;;;;;;;;;;;;10.49;67.71;99607.94;1799702;79;20234;-60
2021/04/16 02:29:11;;;;;;;;;;;;;;;10.47;67.71;99608.17;1797635;79;20133;-59
2021/04/16 02:31:42;;;;;;;;;;;;;;;10.44;67.75;99607.84;1800183;79;20169;-58
2021/04/16 02:34:13;;;;;;;;;;;;;;;10.41;67.81;99608.28;1737157;79;20261;-59
2021/04/16 02:36:41;;;;;;;;;;;;;;;10.38;67.87;99605.58;1799329;79;21151;-59
2021/04/16 02:39:09;;;;;;;;;;;;;;;10.35;67.93;99608.73;1802019;79;20161;-60
2021/04/16 02:41:37;;;;;;;;;;;;;;;10.32;67.98;99615.33;1799818;79;20161;-60
2021/04/16 02:44:05;;;;;;;;;;;;;;;10.27;68.10;99605.83;1799715;79;20125;-61
2021/04/16 02:46:33;;;;;;;;;;;;;;;10.26;68.28;99608.74;1801200;79;20194;-59
2021/04/16 02:49:02;;;;;;;;;;;;;;;10.26;68.32;99603.38;1800529;79;21191;-60
2021/04/16 02:51:30;;;;;;;;;;;;;;;10.25;68.37;99607.13;1792835;79;20616;-59
2021/04/16 02:53:58;;;;;;;;;;;;;;;10.24;68.40;99614.34;1801009;79;20467;-59
2021/04/16 02:56:27;;;;;;;;;;;;;;;10.20;68.46;99607.00;1763871;79;20782;-60
2021/04/16 02:58:57;;;;;;;;;;;;;;;10.17;68.57;99611.80;1799634;79;20188;-61
2021/04/16 03:01:26;;;;;;;;;;;;;;;10.14;68.78;99610.92;1799732;79;21201;-61
2021/04/16 03:03:54;;;;;;;;;;;;;;;10.12;68.95;99607.64;1798204;79;20218;-61
2021/04/16 03:06:23;;;;;;;;;;;;;;;10.09;69.08;99609.98;1798922;79;20314;-60
2021/04/16 03:08:54;;;;;;;;;;;;;;;10.04;69.21;99604.50;1797512;79;20280;-60
2021/04/16 03:11:22;;;;;;;;;;;;;;;10.00;69.35;99607.65;1797973;79;20190;-60
2021/04/16 03:13:50;;;;;;;;;;;;;;;9.97;69.55;99606.78;1798380;79;21196;-61
2021/04/16 03:16:19;;;;;;;;;;;;;;;9.94;69.72;99605.10;1789536;79;20142;-61
2021/04/16 03:18:48;;;;;;;;;;;;;;;9.91;69.85;99611.73;1790674;79;20563;-60
2021/04/16 03:21:16;;;;;;;;;;;;;;;9.91;69.94;99611.73;1800125;79;20130;-59
2021/04/16 03:23:44;;;;;;;;;;;;;;;9.93;69.97;99614.17;1796123;79;20170;-60
2021/04/16 03:26:14;;;;;;;;;;;;;;;9.93;70.00;99616.84;1797792;79;21144;-60
2021/04/16 03:28:42;;;;;;;;;;;;;;;9.94;70.06;99612.59;1797815;79;20151;-60
2021/04/16 03:31:11;;;;;;;;;;;;;;;9.98;70.09;99621.80;1797977;79;20190;-59
2021/04/16 03:33:39;;;;;;;;;;;;;;;10.02;70.04;99618.66;1799076;79;20298;-60
2021/04/16 03:36:09;;;;;;;;;;;;;;;10.03;70.02;99620.30;1796128;79;20308;-60
2021/04/16 03:38:37;;;;;;;;;;;;;;;10.04;70.00;99624.59;1798087;79;21197;-61
2021/04/16 03:41:05;;;;;;;;;;;;;;;10.07;69.95;99630.31;1792803;79;20159;-60
2021/04/16 03:43:33;;;;;;;;;;;;;;;10.06;69.94;99635.36;1766023;79;20228;-62
2021/04/16 03:46:02;;;;;;;;;;;;;;;10.07;69.99;99634.33;1797688;79;20194;-61
2021/04/16 03:48:30;;;;;;;;;;;;;;;10.09;69.93;99636.23;1797992;78;20172;-58
2021/04/16 03:50:59;;;;;;;;;;;;;;;10.11;69.89;99645.38;1791830;79;21208;-59
2021/04/16 03:53:27;;;;;;;;;;;;;;;10.09;69.86;99641.59;1762474;80;20114;-60
2021/04/16 03:55:57;;;;;;;;;;;;;;;10.08;69.85;99643.97;1784044;80;20486;-61
2021/04/16 03:58:25;;;;;;;;;;;;;;;10.08;69.90;99641.83;1785578;80;20252;-60
2021/04/16 04:00:52;;;;;;;;;;;;;;;10.08;69.99;99646.64;1760157;80;20233;-59
2021/04/16 04:03:22;;;;;;;;;;;;;;;10.09;70.02;99642.93;1786945;80;21272;-60
2021/04/16 04:05:51;;;;;;;;;;;;;;;10.13;69.93;99649.46;1787121;80;20191;-60
2021/04/16 04:08:19;;;;;;;;;;;;;;;10.17;69.84;99648.45;1787317;80;20532;-59
2021/04/16 04:10:47;;;;;;;;;;;;;;;10.20;69.73;99651.20;1787181;80;20206;-60
2021/04/16 04:13:17;;;;;;;;;;;;;;;10.21;69.66;99651.50;1787466;79;20133;-60
2021/04/16 04:15:45;;;;;;;;;;;;;;;10.23;69.63;99654.25;1786991;80;21239;-60
2021/04/16 04:18:14;;;;;;;;;;;;;;;10.25;69.68;99652.67;1779000;80;20547;-60
2021/04/16 04:20:42;;;;;;;;;;;;;;;10.28;69.69;99654.88;1787011;80;20219;-62
2021/04/16 04:23:10;;;;;;;;;;;;;;;10.29;69.62;99650.63;1786841;80;20287;-60
2021/04/16 04:25:38;;;;;;;;;;;;;;;10.28;69.60;99655.69;1786720;80;20249;-61
2021/04/16 04:28:06;;;;;;;;;;;;;;;10.22;69.71;99651.77;1786266;80;21372;-60
2021/04/16 04:30:36;;;;;;;;;;;;;;;10.18;69.89;99654.92;1786942;80;20171;-60
2021/04/16 04:33:05;;;;;;;;;;;;;;;10.16;70.06;99657.03;1786965;79;20235;-59
2021/04/16 04:35:34;;;;;;;;;;;;;;;10.16;70.23;99661.58;1786470;79;20151;-61
2021/04/16 04:38:02;;;;;;;;;;;;;;;10.18;70.38;99660.81;1787423;80;20320;-61
2021/04/16 04:40:30;;;;;;;;;;;;;;;10.18;70.47;99661.61;1786979;80;21205;-65
2021/04/16 04:42:58;;;;;;;;;;;;;;;10.18;70.56;99662.95;1737296;80;20133;-62
2021/04/16 04:45:26;;;;;;;;;;;;;;;10.18;70.62;99664.30;1786598;80;20147;-61
2021/04/16 04:47:55;;;;;;;;;;;;;;;10.18;70.74;99670.19;1787124;80;20229;-60
2021/04/16 04:50:25;;;;;;;;;;;;;;;10.15;70.83;99663.42;1784105;80;20109;-62
2021/04/16 04:52:53;;;;;;;;;;;;;;;10.10;71.00;99670.02;1784084;79;21204;-59
2021/04/16 04:55:26;;;;;;;;;;;;;;;10.04;71.15;99670.11;1654369;86;20266;-59
2021/04/16 04:57:55;;;;;;;;;;;;;;;10.04;71.34;99663.41;1654540;86;20236;-59
2021/04/16 05:00:32;;;;;;;;;;;;;;;10.11;71.50;99664.13;1830644;77;20652;-59
2021/04/16 05:02:59;;;;;;;;;;;;;;;10.05;71.63;99668.53;1813721;79;20133;-59
2021/04/16 05:05:28;;;;;;;;;;;;;;;10.08;71.63;99664.05;1816033;79;22239;-57
2021/04/16 05:07:56;;;;;;;;;;;;;;;10.13;71.59;99661.51;1817558;78;20137;-59
2021/04/16 05:10:24;;;;;;;;;;;;;;;10.18;71.59;99666.97;1817261;79;20157;-58
2021/04/16 05:12:52;;;;;;;;;;;;;;;10.24;71.47;99669.25;1812451;79;20114;-58
2021/04/16 05:15:21;;;;;;;;;;;;;;;10.27;71.42;99663.42;1798918;79;20157;-59
2021/04/16 05:17:48;;;;;;;;;;;;;;;10.27;71.45;99666.10;1801074;79;21160;-59
2021/04/16 05:20:17;;;;;;;;;;;;;;;10.25;71.49;99671.42;1801774;79;20197;-60
2021/04/16 05:22:45;;;;;;;;;;;;;;;10.24;71.52;99666.57;1802590;79;20201;-60
2021/04/16 05:25:13;;;;;;;;;;;;;;;10.26;71.58;99665.83;1802318;79;20161;-60
2021/04/16 05:27:41;;;;;;;;;;;;;;;10.32;71.58;99666.23;1800258;79;20177;-59
2021/04/16 05:30:10;;;;;;;;;;;;;;;10.40;71.29;99665.63;1801805;79;21199;-60
2021/04/16 05:32:37;;;;;;;;;;;;;;;10.36;71.20;99666.59;1802430;79;20110;-58
2021/04/16 05:35:08;;;;;;;;;;;;;;;10.29;71.32;99660.51;1702123;84;20647;-62
2021/04/16 05:37:37;;;;;;;;;;;;;;;10.27;71.40;99662.08;1703683;84;20248;-61
2021/04/16 05:40:09;;;;;;;;;;;;;;;10.28;71.54;99666.40;1703608;84;20528;-59
2021/04/16 05:42:36;;;;;;;;;;;;;;;10.26;71.49;99667.67;1702687;84;21226;-61
2021/04/16 05:45:05;;;;;;;;;;;;;;;10.23;71.69;99666.30;1703644;84;20228;-59
2021/04/16 05:47:34;;;;;;;;;;;;;;;10.28;71.73;99668.27;1703269;84;20252;-60
2021/04/16 05:50:05;;;;;;;;;;;;;;;10.31;71.62;99663.25;1703575;84;20235;-61
2021/04/16 05:52:32;;;;;;;;;;;;;;;10.29;71.60;99669.88;1726000;78;20729;-60
2021/04/16 05:55:00;;;;;;;;;;;;;;;10.29;71.56;99671.23;1826371;78;21268;-60
2021/04/16 05:57:28;;;;;;;;;;;;;;;10.29;71.56;99669.38;1823387;78;20485;-60
2021/04/16 05:59:56;;;;;;;;;;;;;;;10.27;71.54;99668.78;1789277;78;20254;-62
2021/04/16 06:02:32;;;;;;;;;;;;;;;10.21;71.78;99668.91;1823110;78;20153;-64
2021/04/16 06:05:02;;;;;;;;;;;;;;;10.19;71.86;99667.81;1822462;78;20107;-61
2021/04/16 06:07:31;;;;;;;;;;;;;;;10.23;72.05;99668.14;1820812;78;21207;-60
2021/04/16 06:10:01;;;;;;;;;;;;;;;10.30;71.91;99669.65;1821746;78;20127;-62
2021/04/16 06:12:29;;;;;;;;;;;;;;;10.35;71.79;99664.98;1821433;78;20143;-59
2021/04/16 06:14:57;;;;;;;;;;;;;;;10.40;71.70;99666.43;1825382;78;20153;-62
2021/04/16 06:17:26;;;;;;;;;;;;;;;10.49;71.44;99673.59;1822665;78;20130;-59
2021/04/16 06:19:54;;;;;;;;;;;;;;;10.59;71.29;99675.69;1824278;78;21182;-60
2021/04/16 06:22:22;;;;;;;;;;;;;;;10.67;70.71;99676.66;1826173;78;20135;-61
2021/04/16 06:24:50;;;;;;;;;;;;;;;10.68;70.38;99677.75;1819029;78;20158;-60
2021/04/16 06:27:18;;;;;;;;;;;;;;;10.65;70.33;99672.87;1820080;78;20255;-59
2021/04/16 06:29:47;;;;;;;;;;;;;;;10.67;70.43;99680.67;1818873;78;20161;-60
2021/04/16 06:32:15;;;;;;;;;;;;;;;10.69;70.26;99678.05;1825783;78;22136;-60
2021/04/16 06:34:43;;;;;;;;;;;;;;;10.71;70.29;99679.16;1814160;78;20211;-61
2021/04/16 06:37:11;;;;;;;;;;;;;;;10.75;70.25;99687.02;1817739;78;20568;-61
2021/04/16 06:39:40;;;;;;;;;;;;;;;10.82;70.08;99689.56;1816151;78;20130;-60
2021/04/16 06:42:20;;;;;;;;;;;;;;;10.81;69.60;99691.97;1819083;78;20545;-62
2021/04/16 06:44:48;;;;;;;;;;;;;;;10.73;69.61;99688.30;1821905;78;21216;-60
2021/04/16 06:47:23;;;;;;;;;;;;;;;10.66;69.71;99699.97;1822654;78;20231;-61
2021/04/16 06:49:54;;;;;;;;;;;;;;;10.63;69.88;99693.74;1822699;78;20500;-61
2021/04/16 06:52:36;;;;;;;;;;;;;;;10.60;69.91;99700.08;1785596;78;20235;-60
2021/04/16 06:55:12;;;;;;;;;;;;;;;10.52;70.10;99695.90;1810411;78;20276;-60
2021/04/16 06:57:54;;;;;;;;;;;;;;;10.49;70.28;99692.34;1822862;77;21179;-60
2021/04/16 07:00:52;;;;;;;;;;;;;;;10.54;70.25;99697.00;1817697;78;20163;-62
2021/04/16 07:03:31;;;;;;;;;;;;;;;10.52;70.10;99695.36;1817520;78;20131;-60
2021/04/16 07:06:08;;;;;;;;;;;;;;;10.50;70.21;99697.47;1814235;78;20773;-59
2021/04/16 07:08:43;;;;;;;;;;;;;;;10.55;70.19;99692.75;1812502;78;20292;-60
2021/04/16 07:11:26;;;;;;;;;;;;;;;10.58;70.01;99698.17;1817520;78;21198;-61
2021/04/16 07:13:54;;;;;;;;;;;;;;;10.58;69.98;99697.64;1816456;78;20276;-59
2021/04/16 07:16:22;;;;;;;;;;;;;;;10.63;69.95;99697.77;1782302;78;20523;-61
2021/04/16 07:18:55;;;;;;;;;;;;;;;10.72;69.61;99698.22;1810943;78;20251;-60
2021/04/16 07:21:23;;;;;;;;;;;;;;;10.82;69.50;99693.58;1813852;78;20270;-60
2021/04/16 07:24:02;;;;;;;;;;;;;;;10.93;69.42;99697.31;1810604;78;20191;-60
2021/04/16 07:26:35;;;;;;;;;;;;;;;11.03;69.11;99701.55;1773262;80;20227;-60
2021/04/16 07:29:03;;;;;;;;;;;;;;;11.07;68.78;99697.34;1751617;81;20241;-60
2021/04/16 07:31:48;;;;;;;;;;;;;;;11.08;68.56;99702.97;1736045;82;20225;-59
2021/04/16 07:34:17;;;;;;;;;;;;;;;11.08;68.46;99700.29;1760116;81;20183;-60
2021/04/16 07:36:45;;;;;;;;;;;;;;;11.03;68.40;99709.59;1755951;81;21302;-61
2021/04/16 07:39:19;;;;;;;;;;;;;;;10.91;68.59;99704.25;1759744;80;20245;-60
2021/04/16 07:41:48;;;;;;;;;;;;;;;10.79;68.92;99702.94;1759666;81;20182;-59
2021/04/16 07:44:20;;;;;;;;;;;;;;;10.76;69.20;99703.91;1758750;79;20230;-60
2021/04/16 07:46:50;;;;;;;;;;;;;;;10.78;69.31;99705.85;1760832;81;20229;-60
2021/04/16 07:49:28;;;;;;;;;;;;;;;10.81;69.31;99701.36;1732246;81;22682;-61
2021/04/16 07:52:01;;;;;;;;;;;;;;;10.83;69.27;99706.75;1759535;81;20134;-59
2021/04/16 07:54:30;;;;;;;;;;;;;;;10.86;69.16;99708.16;1745753;81;20322;-59
2021/04/16 07:57:09;;;;;;;;;;;;;;;10.85;69.13;99711.37;1755086;81;20272;-60
2021/04/16 08:00:00;;;;;;;;;;;;;;;10.83;69.05;99708.62;1753697;81;20280;-61
2021/04/16 08:02:31;;;;;;;;;;;;;;;10.81;69.04;99707.52;1749803;81;21202;-60
2021/04/16 08:04:59;;;;;;;;;;;;;;;10.78;69.06;99708.53;1750969;80;20645;-60
2021/04/16 08:07:31;;;;;;;;;;;;;;;10.75;69.26;99703.61;1751413;81;20146;-63
2021/04/16 08:10:01;;;;;;;;;;;;;;;10.78;69.64;99705.85;1751310;80;20488;-60
2021/04/16 08:12:30;;;;;;;;;;;;;;;10.77;69.87;99707.70;1754560;81;20290;-60
2021/04/16 08:15:17;;;;;;;;;;;;;;;10.77;70.20;99702.88;1722574;81;21216;-60
2021/04/16 08:17:46;;;;;;;;;;;;;;;10.80;70.56;99703.20;1752302;81;20777;-60
2021/04/16 08:20:28;;;;;;;;;;;;;;;10.85;71.00;99696.63;1750800;81;20134;-60
2021/04/16 08:22:59;;;;;;;;;;;;;;;10.91;70.78;99693.53;1743515;81;20302;-60
2021/04/16 08:25:36;;;;;;;;;;;;;;;10.97;70.45;99697.13;1750513;80;20152;-60
2021/04/16 08:28:08;;;;;;;;;;;;;;;11.02;70.30;99694.54;1749245;81;21884;-60
2021/04/16 08:30:59;;;;;;;;;;;;;;;11.02;69.41;99691.33;1747286;81;20236;-60
2021/04/16 08:33:40;;;;;;;;;;;;;;;10.98;68.99;99694.22;1754651;81;20235;-61
2021/04/16 08:36:22;;;;;;;;;;;;;;;10.90;69.43;99698.59;1750147;81;20150;-60
2021/04/16 08:38:57;;;;;;;;;;;;;;;10.84;70.06;99696.33;1750447;81;20218;-60
2021/04/16 08:41:26;;;;;;;;;;;;;;;10.80;70.45;99693.82;1740480;81;21359;-61
2021/04/16 08:44:03;;;;;;;;;;;;;;;10.74;70.65;99694.77;1759585;80;20475;-59
2021/04/16 08:46:37;;;;;;;;;;;;;;;10.75;71.16;99692.89;1762243;80;20358;-61
2021/04/16 08:49:23;;;;;;;;;;;;;;;10.77;71.25;99696.98;1762682;80;20236;-60
2021/04/16 08:51:59;;;;;;;;;;;;;;;10.83;71.37;99696.56;1762233;80;20573;-59
2021/04/16 08:54:32;;;;;;;;;;;;;;;10.86;71.41;99701.45;1763115;80;22452;-60
2021/04/16 08:57:09;;;;;;;;;;;;;;;10.90;71.49;99697.79;1755329;80;20249;-61
2021/04/16 09:00:07;;;;;;;;;;;;;;;10.95;71.34;99701.91;1759867;80;20219;-60
2021/04/16 09:02:53;;;;;;;;;;;;;;;10.97;71.30;99700.62;1771579;80;20223;-62
2021/04/16 09:05:26;;;;;;;;;;;;;;;10.96;71.35;99694.96;1768233;80;20536;-60
2021/04/16 09:08:09;;;;;;;;;;;;;;;10.97;71.67;99697.94;1767591;80;22264;-61
2021/04/16 09:10:52;;;;;;;;;;;;;;;11.02;71.50;99695.88;1766018;80;20227;-61
2021/04/16 09:13:42;;;;;;;;;;;;;;;11.08;71.05;99688.76;1769282;80;20143;-61
2021/04/16 09:16:21;;;;;;;;;;;;;;;11.14;71.16;99685.92;1766002;80;20284;-60
2021/04/16 09:18:51;;;;;;;;;;;;;;;11.26;70.83;99689.91;1770145;80;20221;-62
2021/04/16 09:21:31;;;;;;;;;;;;;;;11.40;70.52;99685.89;1830157;77;20149;-60
2021/04/16 09:24:09;;;;;;;;;;;;;;;11.40;70.39;99688.57;1802406;79;20208;-62
2021/04/16 09:26:47;;;;;;;;;;;;;;;11.41;69.78;99682.70;1801231;79;22139;-61
2021/04/16 09:29:31;;;;;;;;;;;;;;;11.38;69.18;99680.47;1799073;79;20165;-60
2021/04/16 09:32:38;;;;;;;;;;;;;;;11.37;69.23;99672.95;1827501;77;20180;-60
2021/04/16 09:35:11;;;;;;;;;;;;;;;11.30;69.12;99678.98;1808674;79;20149;-60
2021/04/16 09:37:43;;;;;;;;;;;;;;;11.27;69.01;99690.73;1798918;79;20147;-62
2021/04/16 09:40:25;;;;;;;;;;;;;;;11.19;69.74;99699.98;1801181;79;20147;-61
2021/04/16 09:42:58;;;;;;;;;;;;;;;10.97;69.88;99718.05;1799327;79;20200;-60
2021/04/16 09:45:38;;;;;;;;;;;;;;;10.53;68.46;99721.66;1802963;79;20143;-60
2021/04/16 09:48:12;;;;;;;;;;;;;;;10.21;69.34;99707.75;1810297;79;20173;-61
2021/04/16 09:50:42;;;;;;;;;;;;;;;10.08;69.71;99706.91;1801071;79;21198;-62
2021/04/16 09:53:18;;;;;;;;;;;;;;;10.07;70.10;99708.47;1798591;79;20240;-60
2021/04/16 09:56:02;;;;;;;;;;;;;;;10.09;70.17;99702.38;1720847;83;20148;-61
2021/04/16 09:58:35;;;;;;;;;;;;;;;10.14;70.71;99700.65;1724857;83;20207;-60
2021/04/16 10:01:12;;;;;;;;;;;;;;;10.24;71.05;99701.93;1724079;83;20286;-60
2021/04/16 10:03:51;;;;;;;;;;;;;;;10.32;70.98;99701.56;1725244;83;22123;-61
2021/04/16 10:06:35;;;;;;;;;;;;;;;10.39;70.95;99713.55;1723473;83;21141;-60
2021/04/16 10:09:18;;;;;;;;;;;;;;;10.42;70.96;99711.74;1724889;83;20255;-61
2021/04/16 10:12:01;;;;;;;;;;;;;;;10.39;70.66;99706.32;1723772;83;20251;-61
2021/04/16 10:14:31;;;;;;;;;;;;;;;10.32;70.42;99697.05;1768244;79;20346;-59
2021/04/16 10:17:05;;;;;;;;;;;;;;;10.26;70.70;99706.52;1785421;79;21253;-59
2021/04/16 10:19:40;;;;;;;;;;;;;;;10.36;71.08;99704.11;1787655;79;20198;-60
2021/04/16 10:22:14;;;;;;;;;;;;;;;10.51;71.10;99700.95;1789231;79;20565;-61
2021/04/16 12:41:28;;;;;;;;;;;;;;;9.03;67.69;99789.73;1762369;80;20229;-61
2021/04/16 12:43:57;;;;;;;;;;;;;;;8.90;67.47;99788.80;1763338;80;20157;-62
2021/04/16 12:46:31;;;;;;;;;;;;;;;8.81;67.67;99778.11;1722007;82;20253;-61
2021/04/16 12:48:59;;;;;;;;;;;;;;;8.75;68.01;99793.70;1727895;82;21225;-62
2021/04/16 12:51:28;;;;;;;;;;;;;;;8.69;67.74;99787.90;1729376;82;20217;-62
2021/04/16 12:53:55;;;;;;;;;;;;;;;8.61;68.17;99797.52;1724554;82;20172;-60
2021/04/16 12:56:36;;;;;;;;;;;;;;;8.55;68.68;99792.03;1728837;82;20532;-62
2021/04/16 12:59:19;;;;;;;;;;;;;;;8.62;68.96;99793.81;1825438;77;20296;-60
2021/04/16 13:01:48;;;;;;;;;;;;;;;8.52;68.41;99783.61;1780287;79;20162;-61
2021/04/16 13:04:17;;;;;;;;;;;;;;;8.48;69.23;99787.75;1801245;79;21328;-62
2021/04/16 13:06:45;;;;;;;;;;;;;;;8.44;68.64;99790.05;1766986;79;20135;-59
2021/04/16 13:09:15;;;;;;;;;;;;;;;8.43;69.15;99784.38;1799882;78;20224;-59
2021/04/16 13:11:42;;;;;;;;;;;;;;;8.40;68.64;99796.30;1799164;79;20143;-60
2021/04/16 13:14:10;;;;;;;;;;;;;;;8.41;68.66;99789.13;1789789;79;20130;-60
2021/04/16 13:16:38;;;;;;;;;;;;;;;8.44;68.28;99795.40;1789022;79;22122;-59
2021/04/16 13:19:09;;;;;;;;;;;;;;;8.44;68.47;99799.91;1788389;79;20505;-60
2021/04/16 13:21:39;;;;;;;;;;;;;;;8.45;68.22;99803.72;1787617;79;20134;-60
2021/04/16 13:24:08;;;;;;;;;;;;;;;8.45;68.38;99802.88;1786375;79;20167;-60
2021/04/16 13:26:37;;;;;;;;;;;;;;;8.48;68.75;99797.10;1787505;79;20269;-61
2021/04/16 13:29:05;;;;;;;;;;;;;;;8.51;68.82;99809.52;1791778;79;22137;-62
2021/04/16 13:31:35;;;;;;;;;;;;;;;8.55;68.47;99802.72;1796313;79;20165;-61
2021/04/16 13:34:04;;;;;;;;;;;;;;;8.60;68.15;99812.74;1788151;79;20265;-60
2021/04/16 13:36:33;;;;;;;;;;;;;;;8.61;67.95;99816.22;1763214;79;20276;-61
2021/04/16 13:39:02;;;;;;;;;;;;;;;8.62;67.18;99808.52;1796430;79;20213;-63
2021/04/16 13:41:29;;;;;;;;;;;;;;;8.59;67.09;99823.13;1796040;79;21201;-62
2021/04/16 13:43:58;;;;;;;;;;;;;;;8.53;67.21;99830.15;1792879;79;20645;-60
2021/04/16 13:46:28;;;;;;;;;;;;;;;8.50;67.00;99831.11;1790748;79;20141;-60
2021/04/16 13:48:56;;;;;;;;;;;;;;;8.49;67.06;99830.80;1788767;79;20486;-61
2021/04/16 13:51:25;;;;;;;;;;;;;;;8.46;66.70;99825.37;1761036;79;20267;-60
2021/04/16 13:53:53;;;;;;;;;;;;;;;8.39;66.06;99830.75;1788864;79;21108;-59
2021/04/16 13:56:21;;;;;;;;;;;;;;;8.23;66.25;99832.61;1787560;79;20153;-59
2021/04/16 13:58:49;;;;;;;;;;;;;;;8.12;66.70;99835.97;1783864;79;20169;-60
2021/04/16 14:01:17;;;;;;;;;;;;;;;8.06;66.80;99838.97;1787235;79;20184;-60
2021/04/16 14:03:49;;;;;;;;;;;;;;;8.07;66.71;99843.28;1673790;85;20865;-59
2021/04/16 14:06:20;;;;;;;;;;;;;;;8.06;66.43;99833.63;1670938;85;21210;-59
2021/04/16 14:09:09;;;;;;;;;;;;;;;8.08;66.35;99846.23;1820305;77;20317;-60
2021/04/16 14:11:37;;;;;;;;;;;;;;;8.01;66.56;99832.94;1803655;78;20129;-62
2021/04/16 14:14:26;;;;;;;;;;;;;;;7.96;66.76;99843.95;1768653;78;21154;-59
2021/04/16 14:17:00;;;;;;;;;;;;;;;7.98;66.89;99837.88;1799070;78;20522;-61
2021/04/16 14:19:32;;;;;;;;;;;;;;;8.03;66.58;99838.88;1787266;79;20159;-58
2021/04/16 14:22:00;;;;;;;;;;;;;;;8.02;66.82;99843.09;1789427;79;20191;-61
2021/04/16 14:24:28;;;;;;;;;;;;;;;8.04;66.74;99853.87;1794279;79;20193;-60
2021/04/16 14:26:56;;;;;;;;;;;;;;;8.02;66.11;99851.94;1778185;79;21198;-58
2021/04/16 14:29:26;;;;;;;;;;;;;;;7.88;65.97;99845.03;1790819;78;20496;-60
2021/04/16 14:31:54;;;;;;;;;;;;;;;7.69;66.50;99846.22;1792803;79;20163;-59
2021/04/16 14:34:25;;;;;;;;;;;;;;;7.60;66.87;99860.84;1788270;79;20133;-59
2021/04/16 14:36:53;;;;;;;;;;;;;;;7.58;67.13;99859.41;1797196;79;20535;-59
2021/04/16 14:39:21;;;;;;;;;;;;;;;7.58;67.23;99862.88;1789979;79;21201;-59
2021/04/16 14:41:49;;;;;;;;;;;;;;;7.59;67.21;99866.39;1774646;79;20157;-60
2021/04/16 14:44:18;;;;;;;;;;;;;;;7.58;66.62;99865.55;1797393;78;20159;-59
2021/04/16 14:46:49;;;;;;;;;;;;;;;7.57;66.38;99859.09;1791353;79;20227;-62
2021/04/16 14:49:19;;;;;;;;;;;;;;;7.53;66.18;99866.71;1794441;79;20115;-61
2021/04/16 14:51:48;;;;;;;;;;;;;;;7.47;65.95;99864.89;1791947;79;21201;-60
2021/04/16 14:54:34;;;;;;;;;;;;;;;7.37;65.86;99866.13;1791703;79;20115;-59
2021/04/16 14:57:05;;;;;;;;;;;;;;;7.36;65.60;99859.66;1790296;79;20151;-59
2021/04/16 14:59:35;;;;;;;;;;;;;;;7.29;65.54;99867.70;1793841;79;20147;-60
2021/04/16 15:02:04;;;;;;;;;;;;;;;7.23;65.86;99873.03;1795230;79;20210;-60
2021/04/16 15:04:32;;;;;;;;;;;;;;;7.25;66.18;99869.66;1793780;79;21377;-61
2021/04/16 15:07:02;;;;;;;;;;;;;;;7.30;66.08;99872.51;1790776;79;20197;-59
2021/04/16 15:09:35;;;;;;;;;;;;;;;7.34;66.19;99871.07;1757296;81;20261;-59
2021/04/16 15:12:05;;;;;;;;;;;;;;;7.39;66.07;99867.28;1756550;81;20287;-60
2021/04/16 15:14:33;;;;;;;;;;;;;;;7.46;65.97;99871.24;1757709;81;20750;-59
2021/04/16 15:17:01;;;;;;;;;;;;;;;7.51;65.95;99868.78;1755114;81;21275;-63
2021/04/16 15:19:38;;;;;;;;;;;;;;;7.59;65.92;99865.05;1727730;81;20194;-61
2021/04/16 15:22:07;;;;;;;;;;;;;;;7.63;65.64;99842.27;1755866;81;20245;-59
2021/04/16 15:24:36;;;;;;;;;;;;;;;7.61;65.71;99848.31;1758249;81;20148;-61
2021/04/16 15:27:05;;;;;;;;;;;;;;;7.57;65.60;99847.09;1729381;80;21045;-60
2021/04/16 15:29:36;;;;;;;;;;;;;;;7.50;65.65;99840.46;1756024;81;21207;-61